Airfield :
LOGIN :

Register | Disclaimer

   EN    FR    IT 

 










Legend :    VFR   Marginal VFR   IFR   Intensive IFR   Very Intensive IFR
Visi :
Ceiling :
>= 8 km
>= 3000ft
5 to 8 km
1000 to 3000 ft
1500m to 5 km
500 to 1000 ft
800 to 1500m
200 to 500 ft
< 800m
< 200 ft
Symbols :   Thunderstorms  Fog  Heavy snow  Heavy precipitations  Wind > 20 kt
SIGMETs :     Misc.  Thunderstorms  Icing  Turbulence  Mountain Waves  Volcanic Ashes






- Airport Elevation : 401 ft
- IATA code : LEQ


EGHC - Land's End

CURRENT METAR :
  • 241120Z 24018G28KT 0900 RA FG BKN001 10/10 Q1011

EXPIRED METARs :
  • 241050Z 24020G30KT 0300 RA FG BKN001 10/10 Q1011
  • 241020Z 23021KT 0200 RA FG BKN001 10/10 Q1011
  • 240950Z 23023G33KT 0200 RA FG BKN001 10/10 Q1012
  • 240920Z 23024G34KT 0300 -RA FG BKN001 09/09 Q1012
  • 240850Z 23024G34KT 0300 -RA FG BKN001 09/09 Q1012

TAF TAF EGHC
Valid from the 24 at 12:00 until the 24 at 18:00 UTC


241103Z 2412/2418 24020KT 9999 SCT002 BKN010
TEMPO 2412/2415 24020G30KT 4000 RA BKN005
PROB40
TEMPO 2412/2414 25030G40KT 1200 +RADZ
PROB30
TEMPO 2412/2414 0300 FG BKN001
PROB30
TEMPO 2415/2418 7000 SHRA



MET'MAP, your aeronautical weather chart ! - Copyright ORBIFLY December 2007 - Disclaimer

ORBIFLY MET'MAP TEAM :

Programming & Development : Alexandra Zaïnal
Concept & original design : Baudouin d'Aumeries
Assistance for programming : Marc-Olivier Méhu
Technical & hardware support : Manuel Goepfert

Contact : metmap@orbifly.com




SOURCES & CREDITS :

   NOAA